Inicio / NACIONALES / TN / Clase 2 / EL PRIMER ENTRENAMIENTO FUE PARA LOS HERMANOS ABDALA
Manfrey

EL PRIMER ENTRENAMIENTO FUE PARA LOS HERMANOS ABDALA

Christian Abdala dominó el primer entrenamiento de Turismo Nacional Clase 2 en el «Autódromo Ezequiel Crisol» de Bahía Blanca, superando por escaso margen a su hermano, Emanuel Abdala.

El piloto comodorense superó por apenas 0s049 a su consanguíneo, quien desde esta temporada compite sobre el Ford Fiesta Kinetic del equipo Ale Bucci Racing, tratándose del auto con el cual Nicolás Posco obtuvo el certámen de la temporada pasada. Facundo Leanez se ubicó en tercer lugar.

Registros completos – Entrenamiento 1 TN Clase 2:

Puesto Piloto Marca Vtas. Tiempo Dif.
1 9 CHRISTIAN ABDALA TOYOTA ETIOS 13 1:17.314
2 2 EMANUEL ABDALA FIESTA KINETIC 7 1:17.363 0.049
3 7 FACUNDO LEANEZ TOYOTA ETIOS 14 1:17.454 0.140
4 3 GERONIMO NUNEZ TOYOTA ETIOS 10 1:17.501 0.187
5 8 SEBASTIAN PEREZ CHEVROLET ONIX 13 1:17.696 0.382
6 89 RENZO BLOTTA TOYOTA ETIOS 14 1:17.850 0.536
7 21 FERNANDO GOMEZ FREDES NISSAN MARCH 13 1:17.943 0.629
8 56 GASTON GRASSO TOYOTA ETIOS 14 1:17.946 0.632
9 199 JUAN I. TORRES CHEVROLET CORSA 15 1:17.984 0.670
10 12 MAXIMILIANO BESTANI FIESTA KINETIC 13 1:18.006 0.692
11 14 IGNACIO PROCACITTO VW TREND 15 1:18.089 0.775
12 4 LUCAS TEDESCHI TOYOTA ETIOS 7 1:18.100 0.786
13 100 MAURO SALVI TOYOTA ETIOS 11 1:18.137 0.823
14 23 DAMIAN KIRSTEIN PEUGEOT 208 14 1:18.149 0.835
15 84 LUCAS YEROBI RENAULT CLIO 11 1:18.161 0.847
16 19 LUCIANO GONZALEZ FIESTA KINETIC 15 1:18.230 0.916
17 10 ALEJO BORGIANI VW TREND 12 1:18.242 0.928
18 28 MATEO NUNEZ NISSAN MARCH 11 1:18.243 0.929
19 15 MIGUEL CIAURRO VW TREND 11 1:18.290 0.976
20 50 MAXIMILIANO FONTANA VW TREND 12 1:18.291 0.977
21 114 PABLO ORTEGA FIAT ARGO 15 1:18.408 1.094
22 16 DIEGO LEANEZ TOYOTA ETIOS 17 1:18.462 1.148
23 61 FACUNDO BUSTOS VW TREND 12 1:18.462 1.148
24 22 MARCOS FERNANDEZ NISSAN MARCH 16 1:18.486 1.172
25 35 SERGIO FERNANDEZ NISSAN MARCH 13 1:18.545 1.231
26 79 MARCO VERONESI TOYOTA ETIOS 13 1:18.549 1.235
27 127 JOSE BAILONE RENAULT CLIO 13 1:18.736 1.422
28 39 LEANDRO VALLASCIANI VW TREND 13 1:18.739 1.425
29 154 FACUNDO ROTONDO FIESTA KINETIC 15 1:18.790 1.476
30 113 CHRISTIAN BODRATO MIONETTO TOYOTA ETIOS 14 1:18.813 1.499
31 151 DIEGO CHEVALLEY TOYOTA ETIOS 16 1:19.077 1.763
32 37 GABRIEL SCORDIA FIAT ARGO 10 1:19.094 1.780
33 36 SANDRO ABDALA TOYOTA ETIOS 9 1:19.212 1.898
34 26 AGUSTIN BONOMO DS3 15 1:19.249 1.935
35 48 RICARDO SALE FIESTA KINETIC 16 1:19.603 2.289
36 98 ALEX CONCI FIESTA KINETIC 14 1:19.850 2.536
37 121 NAZARENO BEGUIRISTAIN FIAT ARGO 14 1:19.945 2.631
38 55 MARCELO GUEVARA NISSAN MARCH 1 1:30.420 13.106

 

 

 

 

 

 

 

 

 

 

 

Fuente y foto: apat.org.ar

JEA

Te puede interesar

TRIUNFO DE PELÍCULA DE BODRATO MIONETTO

Por apenas 0013s, Christian Bodrato Mionetto ganó su primera competencia en el Turismo Nacional, a …